Terminal Aerodrome Forecast
Issued by NWS

Home | Current Version | Previous Version | Text Only | Print | Product List | Glossary On
Versions: 1 2 3 4 5 6 7 8 9 10 11 12 13 14 15 16 17 18 19 20 21 22 23 24 25 26
000
FTUS43 KGLD 040520
TAFMCK
TAF
KMCK 040520Z 0406/0506 01012KT 3SM -SN BR OVC020
      TEMPO 0406/0409 1/2SM SN FG OVC009
     FM041200 33012KT P6SM BKN030
     FM041800 34016G24KT P6SM SCT040 BKN150
     FM042300 36008KT P6SM SKC
     FM050200 VRB04KT P6SM SKC=

USA.gov is the U.S. government's official web portal to all federal, state and local government web resources and services.